Terminal Aerodrome Forecast
Issued by NWS

Home | Current Version | Previous Version | Text Only | Print | Product List | Glossary On
Versions: 1 2 3 4 5 6 7 8 9 10 11 12 13 14
000
FTUS43 KDTX 212320
TAFMBS
TAF
KMBS 212320Z 2200/2224 18007KT P6SM SCT060 BKN200
      TEMPO 2202/2204 5SM SHRA BKN050
     FM220500 21007KT P6SM BKN060 OVC120
     FM220800 23010G20KT 3SM SHRA BR VCTS OVC040CB
     FM221200 24013G23KT P6SM BKN040
     FM221700 28012G20KT P6SM BKN040 PROB30 2217/2220 4SM -SHRA
      BKN030=

USA.gov is the U.S. government's official web portal to all federal, state and local government web resources and services.